createdAt,value
2023-11-23T00:00:29.451Z,94809.16
2023-11-23T00:02:56.155Z,94794.81
2023-11-23T00:05:22.936Z,94805.34
2023-11-23T00:07:49.877Z,94790.94
2023-11-23T00:10:16.602Z,94803.03
2023-11-23T00:12:43.402Z,94805.25
2023-11-23T00:15:10.271Z,94808.03
2023-11-23T00:17:37.140Z,94816.38
2023-11-23T00:20:07.211Z,94808.34
2023-11-23T00:22:34.549Z,94811.88
2023-11-23T00:25:01.462Z,94812.50
2023-11-23T00:27:28.279Z,94822.97
2023-11-23T00:29:55.203Z,94832.00
2023-11-23T00:32:21.913Z,94839.44
2023-11-23T00:34:48.744Z,94847.47
2023-11-23T00:37:15.938Z,94852.69
2023-11-23T00:39:43.600Z,94857.94
2023-11-23T00:42:10.711Z,94846.50
2023-11-23T00:44:38.692Z,94846.94
2023-11-23T00:47:05.901Z,94833.63
2023-11-23T00:49:32.609Z,94828.38
2023-11-23T00:51:59.312Z,94834.56
2023-11-23T00:54:26.334Z,94825.00
2023-11-23T00:56:53.048Z,94830.00
2023-11-23T00:59:19.773Z,94829.41
2023-11-23T01:01:46.958Z,94832.84
2023-11-23T01:04:14.488Z,94851.13
2023-11-23T01:06:43.033Z,94844.66
2023-11-23T01:09:10.567Z,94838.84
2023-11-23T01:11:37.475Z,94843.41
2023-11-23T01:14:04.530Z,94851.16
2023-11-23T01:16:31.304Z,94855.59
2023-11-23T01:18:58.014Z,94848.63
2023-11-23T01:21:24.737Z,94849.53
2023-11-23T01:23:51.491Z,94840.50
2023-11-23T01:26:18.260Z,94846.09
2023-11-23T01:28:44.956Z,94856.09
2023-11-23T01:31:11.731Z,94852.09
2023-11-23T01:33:38.508Z,94839.13
2023-11-23T01:36:05.834Z,94829.63
2023-11-23T01:38:32.549Z,94816.69
2023-11-23T01:40:59.297Z,94820.94
2023-11-23T01:43:26.061Z,94813.34
2023-11-23T01:45:52.808Z,94799.63
2023-11-23T01:48:20.988Z,94790.28
2023-11-23T01:50:49.194Z,94795.84
2023-11-23T01:53:16.023Z,94782.44
2023-11-23T01:55:42.872Z,94787.56
2023-11-23T01:58:11.649Z,94793.47
2023-11-23T02:00:39.230Z,94785.84
2023-11-23T02:03:06.290Z,94794.16
2023-11-23T02:05:33.120Z,94799.44
2023-11-23T02:07:59.870Z,94811.28
2023-11-23T02:10:26.669Z,94825.84
2023-11-23T02:12:54.169Z,94830.72
2023-11-23T02:15:21.102Z,94838.81
2023-11-23T02:17:48.005Z,94836.34
2023-11-23T02:20:15.140Z,94828.16
2023-11-23T02:22:41.859Z,94829.78
2023-11-23T02:25:08.716Z,94822.06
2023-11-23T02:27:36.620Z,94824.47
2023-11-23T02:30:04.444Z,94823.75
2023-11-23T02:32:31.264Z,94826.28
2023-11-23T02:34:57.950Z,94833.13
2023-11-23T02:37:24.725Z,94820.56
2023-11-23T02:39:51.497Z,94817.72
2023-11-23T02:42:18.357Z,94826.28
2023-11-23T02:44:45.087Z,94824.84
2023-11-23T02:47:11.804Z,94813.13
2023-11-23T02:49:38.457Z,94809.13
2023-11-23T02:52:06.062Z,94802.91
2023-11-23T02:54:32.847Z,94796.84
2023-11-23T02:56:59.574Z,94788.94
2023-11-23T02:59:26.319Z,94778.28
2023-11-23T03:01:53.107Z,94791.16
2023-11-23T03:04:19.844Z,94792.06
2023-11-23T03:06:47.169Z,94805.69
2023-11-23T03:09:14.192Z,94797.41
2023-11-23T03:11:41.794Z,94792.19
2023-11-23T03:14:09.631Z,94791.09
2023-11-23T03:16:36.568Z,94786.41
2023-11-23T03:19:04.505Z,94778.44
2023-11-23T03:21:31.302Z,94791.59
2023-11-23T03:23:58.030Z,94789.69
2023-11-23T03:26:25.239Z,94796.78
2023-11-23T03:28:51.996Z,94788.53
2023-11-23T03:31:18.708Z,94794.50
2023-11-23T03:33:45.410Z,94801.63
2023-11-23T03:36:12.185Z,94799.56
2023-11-23T03:38:38.972Z,94796.41
2023-11-23T03:41:05.729Z,94797.41
2023-11-23T03:43:32.428Z,94797.72
2023-11-23T03:45:59.121Z,94797.94
2023-11-23T03:48:26.836Z,94805.56
2023-11-23T03:50:53.646Z,94810.34
2023-11-23T03:53:20.474Z,94812.66
2023-11-23T03:55:47.148Z,94819.34
2023-11-23T03:58:13.810Z,94816.47
2023-11-23T04:00:41.425Z,94830.59
2023-11-23T04:03:08.945Z,94835.84
2023-11-23T04:05:35.759Z,94838.22
2023-11-23T04:08:02.452Z,94835.41
2023-11-23T04:10:29.176Z,94840.94
2023-11-23T04:12:55.821Z,94836.22
2023-11-23T04:15:22.534Z,94838.59
2023-11-23T04:17:49.363Z,94845.84
2023-11-23T04:20:16.980Z,94851.91
2023-11-23T04:22:43.640Z,94844.13
2023-11-23T04:25:10.577Z,94836.84
2023-11-23T04:27:37.329Z,94829.06
2023-11-23T04:30:05.696Z,94833.34
2023-11-23T04:32:34.135Z,94830.03
2023-11-23T04:35:01.001Z,94832.41
2023-11-23T04:37:27.662Z,94821.63
2023-11-23T04:39:54.379Z,94824.50
2023-11-23T04:42:21.172Z,94823.09
2023-11-23T04:44:48.035Z,94819.94
2023-11-23T04:47:14.753Z,94819.94
2023-11-23T04:49:41.487Z,94818.50
2023-11-23T04:52:08.167Z,94818.16
2023-11-23T04:54:34.921Z,94827.97
2023-11-23T04:57:01.665Z,94818.94
2023-11-23T04:59:28.444Z,94817.84
2023-11-23T05:01:55.914Z,94818.19
2023-11-23T05:04:22.647Z,94820.38
2023-11-23T05:06:49.836Z,94816.41
2023-11-23T05:09:16.669Z,94817.84
2023-11-23T05:11:43.464Z,94815.97
2023-11-23T05:14:10.547Z,94810.88
2023-11-23T05:16:37.318Z,94809.75
2023-11-23T05:19:04.159Z,94815.44
2023-11-23T05:21:30.917Z,94821.78
2023-11-23T05:23:59.591Z,94825.75
2023-11-23T05:26:28.003Z,94821.78
2023-11-23T05:28:54.719Z,94816.56
2023-11-23T05:31:21.462Z,94815.63
2023-11-23T05:33:48.234Z,94815.28
2023-11-23T05:36:15.193Z,94811.81
2023-11-23T05:38:42.213Z,94805.78
2023-11-23T05:41:09.089Z,94811.34
2023-11-23T05:43:36.054Z,94817.19
2023-11-23T05:46:02.726Z,94810.72
2023-11-23T05:48:29.474Z,94815.59
2023-11-23T05:50:56.203Z,94812.72
2023-11-23T05:53:22.936Z,94813.69
2023-11-23T05:55:49.686Z,94816.22
2023-11-23T05:58:16.421Z,94822.56
2023-11-23T06:00:43.333Z,94819.72
2023-11-23T06:03:10.136Z,94819.53
2023-11-23T06:05:37.285Z,94824.75
2023-11-23T06:08:05.294Z,94821.56
2023-11-23T06:10:34.532Z,94815.41
2023-11-23T06:13:02.136Z,94816.53
2023-11-23T06:15:29.102Z,94823.78
2023-11-23T06:18:07.355Z,94828.03
2023-11-23T06:20:40.546Z,94835.47
2023-11-23T06:23:07.239Z,94837.06
2023-11-23T06:25:33.981Z,94837.56
2023-11-23T06:28:12.446Z,94842.31
2023-11-23T06:30:42.688Z,94839.91
2023-11-23T06:33:09.600Z,94838.94
2023-11-23T06:35:36.510Z,94835.00
2023-11-23T06:38:04.408Z,94833.41
2023-11-23T06:40:31.518Z,94839.25
2023-11-23T06:42:58.185Z,94844.81
2023-11-23T06:45:24.859Z,94844.50
2023-11-23T06:47:51.661Z,94848.56
2023-11-23T06:50:18.395Z,94846.38
2023-11-23T06:52:46.520Z,94849.59
2023-11-23T06:55:15.276Z,94853.84
2023-11-23T06:57:47.953Z,94847.38
2023-11-23T07:00:25.062Z,94853.53
2023-11-23T07:02:54.334Z,94848.16
2023-11-23T07:05:21.151Z,94853.72
2023-11-23T07:07:48.549Z,94857.06
2023-11-23T07:10:19.740Z,94858.31
2023-11-23T07:12:48.316Z,94854.50
2023-11-23T07:15:15.205Z,94860.34
2023-11-23T07:17:42.824Z,94867.66
2023-11-23T07:20:12.882Z,94861.97
2023-11-23T07:22:40.399Z,94870.03
2023-11-23T07:25:11.444Z,94859.69
2023-11-23T07:27:38.820Z,94860.53
2023-11-23T07:30:09.716Z,94866.09
2023-11-23T07:32:37.410Z,94877.38
2023-11-23T07:35:05.723Z,94871.53
2023-11-23T07:37:35.060Z,94871.38
2023-11-23T07:40:13.354Z,94869.97
2023-11-23T07:42:41.751Z,94865.84
2023-11-23T07:45:09.000Z,94853.56
2023-11-23T07:47:36.232Z,94849.28
2023-11-23T07:50:03.175Z,94835.00
2023-11-23T07:52:30.312Z,94831.59
2023-11-23T07:54:56.950Z,94830.78
2023-11-23T07:57:24.543Z,94832.34
2023-11-23T07:59:57.749Z,94842.13
2023-11-23T08:02:27.620Z,94832.38
2023-11-23T08:04:54.360Z,94831.72
2023-11-23T08:07:21.835Z,94838.59
2023-11-23T08:09:48.787Z,94839.13
2023-11-23T08:12:15.552Z,94830.09
2023-11-23T08:14:42.229Z,94831.22
2023-11-23T08:17:10.138Z,94825.53
2023-11-23T08:19:37.080Z,94834.34
2023-11-23T08:22:04.024Z,94839.13
2023-11-23T08:24:30.819Z,94853.47
2023-11-23T08:26:57.886Z,94856.44
2023-11-23T08:29:24.702Z,94863.31
2023-11-23T08:31:52.558Z,94866.38
2023-11-23T08:34:19.400Z,94865.09
2023-11-23T08:36:46.232Z,94859.00
2023-11-23T08:39:13.446Z,94857.16
2023-11-23T08:41:40.550Z,94857.72
2023-11-23T08:44:07.367Z,94862.47
2023-11-23T08:46:37.394Z,94857.59
2023-11-23T08:49:04.256Z,94862.53
2023-11-23T08:51:31.144Z,94858.94
2023-11-23T08:53:58.071Z,94858.53
2023-11-23T08:56:25.088Z,94870.13
2023-11-23T08:58:51.920Z,94866.91
2023-11-23T09:01:18.649Z,94867.75
2023-11-23T09:03:45.880Z,94867.34
2023-11-23T09:06:13.844Z,94874.72
2023-11-23T09:08:41.473Z,94876.59
2023-11-23T09:11:08.458Z,94867.50
2023-11-23T09:13:35.267Z,94864.56
2023-11-23T09:16:02.036Z,94864.97
2023-11-23T09:18:28.800Z,94869.16
2023-11-23T09:20:58.334Z,94860.94
2023-11-23T09:23:27.206Z,94869.75
2023-11-23T09:25:54.427Z,94854.97
2023-11-23T09:28:22.547Z,94854.50
2023-11-23T09:30:49.554Z,94858.63
2023-11-23T09:33:19.967Z,94844.56
2023-11-23T09:35:47.446Z,94838.66
2023-11-23T09:38:14.242Z,94837.13
2023-11-23T09:40:42.034Z,94826.13
2023-11-23T09:43:09.128Z,94835.88
2023-11-23T09:45:37.148Z,94823.03
2023-11-23T09:48:07.182Z,94824.97
2023-11-23T09:50:37.967Z,94815.88
2023-11-23T09:53:09.167Z,94815.72
2023-11-23T09:55:36.019Z,94804.59
2023-11-23T09:58:05.907Z,94793.50
2023-11-23T10:00:36.511Z,94799.22
2023-11-23T10:03:08.374Z,94790.97
2023-11-23T10:05:36.107Z,94787.56
2023-11-23T10:08:03.777Z,94790.53
2023-11-23T10:10:31.017Z,94783.75
2023-11-23T10:12:57.769Z,94777.66
2023-11-23T10:15:26.346Z,94780.00
2023-11-23T10:17:53.179Z,94779.06
2023-11-23T10:20:19.967Z,94770.00
2023-11-23T10:22:51.096Z,94761.81
2023-11-23T10:25:35.811Z,94755.72
2023-11-23T10:28:06.664Z,94746.34
2023-11-23T10:30:34.306Z,94751.91
2023-11-23T10:33:01.989Z,94745.72
2023-11-23T10:35:43.190Z,94746.81
2023-11-23T10:38:09.984Z,94734.66
2023-11-23T10:40:36.855Z,94734.50
2023-11-23T10:43:04.405Z,94718.59
2023-11-23T10:45:36.968Z,94710.75
2023-11-23T10:48:04.654Z,94713.03
2023-11-23T10:50:33.221Z,94714.44
2023-11-23T10:53:02.912Z,94691.81
2023-11-23T10:55:29.682Z,94688.66
2023-11-23T10:58:05.619Z,94697.97
2023-11-23T11:00:32.757Z,94695.56
2023-11-23T11:03:02.499Z,94686.59
2023-11-23T11:05:36.262Z,94675.34
2023-11-23T11:08:06.560Z,94685.84
2023-11-23T11:10:41.718Z,94667.63
2023-11-23T11:13:13.877Z,94662.13
2023-11-23T11:16:04.567Z,94665.31
2023-11-23T11:18:34.799Z,94670.28
2023-11-23T11:21:09.430Z,94670.84
2023-11-23T11:23:46.811Z,94679.66
2023-11-23T11:26:27.239Z,94674.72
2023-11-23T11:28:56.003Z,94665.28
2023-11-23T11:31:51.508Z,94655.81
2023-11-23T11:34:22.028Z,94670.34
2023-11-23T11:37:00.264Z,94659.53
2023-11-23T11:39:36.934Z,94670.09
2023-11-23T11:42:05.301Z,94657.53
2023-11-23T11:44:36.500Z,94661.69
2023-11-23T11:47:05.936Z,94659.66
2023-11-23T11:49:32.831Z,94665.38
2023-11-23T11:51:59.517Z,94653.78
2023-11-23T11:54:26.594Z,94645.81
2023-11-23T11:56:54.194Z,94645.78
2023-11-23T11:59:22.170Z,94625.47
2023-11-23T12:01:50.166Z,94621.44
2023-11-23T12:04:23.293Z,94618.53
2023-11-23T12:06:50.225Z,94617.94
2023-11-23T12:09:33.970Z,94621.66
2023-11-23T12:12:06.554Z,94616.19
2023-11-23T12:14:35.750Z,94617.50
2023-11-23T12:17:13.516Z,94618.44
2023-11-23T12:19:54.415Z,94614.00
2023-11-23T12:22:24.123Z,94617.78
2023-11-23T12:24:52.363Z,94623.78
2023-11-23T12:27:21.797Z,94619.94
2023-11-23T12:29:48.944Z,94606.69
2023-11-23T12:32:15.975Z,94609.47
2023-11-23T12:34:42.710Z,94602.44
2023-11-23T12:37:09.525Z,94602.94
2023-11-23T12:39:36.334Z,94599.06
2023-11-23T12:42:03.578Z,94596.09
2023-11-23T12:44:30.452Z,94591.22
2023-11-23T12:46:57.509Z,94577.56
2023-11-23T12:49:24.568Z,94570.94
2023-11-23T12:51:51.441Z,94564.31
2023-11-23T12:54:18.237Z,94569.63
2023-11-23T12:56:44.994Z,94564.31
2023-11-23T12:59:11.820Z,94560.53
2023-11-23T13:01:40.518Z,94558.34
2023-11-23T13:04:09.734Z,94551.16
2023-11-23T13:06:37.530Z,94540.38
2023-11-23T13:09:05.357Z,94534.00
2023-11-23T13:11:32.697Z,94531.50
2023-11-23T13:13:59.598Z,94536.31
2023-11-23T13:16:26.404Z,94536.50
2023-11-23T13:19:10.373Z,94522.88
2023-11-23T13:21:40.096Z,94519.09
2023-11-23T13:24:08.090Z,94509.81
2023-11-23T13:26:35.413Z,94503.81
2023-11-23T13:29:02.289Z,94504.19
2023-11-23T13:31:29.350Z,94499.97
2023-11-23T13:33:57.168Z,94492.81
2023-11-23T13:36:24.050Z,94490.19
2023-11-23T13:38:51.721Z,94487.00
2023-11-23T13:41:19.668Z,94500.66
2023-11-23T13:43:46.843Z,94503.28
2023-11-23T13:46:15.738Z,94503.69
2023-11-23T13:48:44.501Z,94518.59
2023-11-23T13:51:14.000Z,94521.63
2023-11-23T13:53:40.781Z,94512.44
2023-11-23T13:56:11.330Z,94500.56
2023-11-23T13:58:38.509Z,94497.41
2023-11-23T14:01:05.289Z,94500.97
2023-11-23T14:03:33.419Z,94490.72
2023-11-23T14:06:00.593Z,94491.88
2023-11-23T14:08:27.364Z,94479.25
2023-11-23T14:10:54.284Z,94485.19
2023-11-23T14:13:21.066Z,94472.81
2023-11-23T14:15:47.986Z,94479.53
2023-11-23T14:18:15.896Z,94471.81
2023-11-23T14:20:45.346Z,94478.44
2023-11-23T14:23:14.386Z,94478.19
2023-11-23T14:25:44.163Z,94477.38
2023-11-23T14:28:16.085Z,94481.78
2023-11-23T14:30:43.798Z,94473.84
2023-11-23T14:33:22.137Z,94475.22
2023-11-23T14:35:53.430Z,94490.88
2023-11-23T14:38:21.199Z,94500.25
2023-11-23T14:40:48.309Z,94485.50
2023-11-23T14:43:19.858Z,94473.97
2023-11-23T14:45:47.255Z,94474.28
2023-11-23T14:48:15.750Z,94480.44
2023-11-23T14:50:42.793Z,94486.53
2023-11-23T14:53:09.513Z,94497.28
2023-11-23T14:55:36.523Z,94499.13
2023-11-23T14:58:03.358Z,94491.16
2023-11-23T15:00:31.463Z,94477.19
2023-11-23T15:02:59.259Z,94452.19
2023-11-23T15:05:25.968Z,94449.56
2023-11-23T15:07:53.738Z,94445.91
2023-11-23T15:10:21.250Z,94448.16
2023-11-23T15:12:53.200Z,94450.75
2023-11-23T15:15:21.554Z,94459.66
2023-11-23T15:17:50.032Z,94461.88
2023-11-23T15:20:17.213Z,94456.09
2023-11-23T15:22:43.987Z,94448.28
2023-11-23T15:25:14.199Z,94446.38
2023-11-23T15:27:43.519Z,94442.75
2023-11-23T15:30:12.325Z,94434.16
2023-11-23T15:32:40.121Z,94434.94
2023-11-23T15:35:08.607Z,94432.09
2023-11-23T15:37:35.742Z,94435.22
2023-11-23T15:40:02.642Z,94425.38
2023-11-23T15:42:29.519Z,94431.09
2023-11-23T15:44:56.203Z,94428.13
2023-11-23T15:47:24.200Z,94418.41
2023-11-23T15:49:51.685Z,94425.13
2023-11-23T15:52:18.399Z,94431.28
2023-11-23T15:54:45.255Z,94438.78
2023-11-23T15:57:12.078Z,94446.53
2023-11-23T15:59:38.837Z,94453.13
2023-11-23T16:02:05.635Z,94456.09
2023-11-23T16:04:33.021Z,94460.91
2023-11-23T16:07:01.807Z,94455.41
2023-11-23T16:09:28.833Z,94448.03
2023-11-23T16:11:55.553Z,94450.25
2023-11-23T16:14:22.684Z,94430.75
2023-11-23T16:16:49.477Z,94433.31
2023-11-23T16:19:16.190Z,94434.09
2023-11-23T16:21:42.876Z,94438.81
2023-11-23T16:24:11.700Z,94446.34
2023-11-23T16:26:38.813Z,94462.13
2023-11-23T16:29:11.187Z,94455.38
2023-11-23T16:31:43.286Z,94448.31
2023-11-23T16:34:10.996Z,94449.88
2023-11-23T16:36:40.368Z,94468.16
2023-11-23T16:39:08.580Z,94460.75
2023-11-23T16:41:35.769Z,94473.06
2023-11-23T16:44:02.740Z,94473.69
2023-11-23T16:46:29.477Z,94474.81
2023-11-23T16:48:56.342Z,94470.63
2023-11-23T16:51:24.044Z,94471.06
2023-11-23T16:53:53.691Z,94464.78
2023-11-23T16:56:22.370Z,94458.84
2023-11-23T16:58:49.122Z,94453.31
2023-11-23T17:01:16.213Z,94457.53
2023-11-23T17:03:43.136Z,94443.72
2023-11-23T17:06:10.289Z,94439.97
2023-11-23T17:08:39.112Z,94433.59
2023-11-23T17:11:10.000Z,94423.19
2023-11-23T17:13:37.455Z,94411.75
2023-11-23T17:16:04.560Z,94398.47
2023-11-23T17:18:31.482Z,94404.66
2023-11-23T17:20:58.507Z,94413.94
2023-11-23T17:23:25.969Z,94404.56
2023-11-23T17:25:53.075Z,94400.13
2023-11-23T17:28:22.792Z,94402.75
2023-11-23T17:30:49.651Z,94393.19
2023-11-23T17:33:20.473Z,94385.34
2023-11-23T17:35:47.841Z,94398.44
2023-11-23T17:38:17.194Z,94395.63
2023-11-23T17:40:44.114Z,94404.28
2023-11-23T17:43:10.789Z,94406.66
2023-11-23T17:45:37.542Z,94407.34
2023-11-23T17:48:05.261Z,94412.41
2023-11-23T17:50:32.264Z,94415.09
2023-11-23T17:52:59.775Z,94420.81
2023-11-23T17:55:28.422Z,94415.94
2023-11-23T17:57:55.944Z,94421.81
2023-11-23T18:00:23.170Z,94426.34
2023-11-23T18:02:50.030Z,94423.59
2023-11-23T18:05:18.671Z,94417.34
2023-11-23T18:07:45.473Z,94413.41
2023-11-23T18:10:15.767Z,94404.31
2023-11-23T18:12:43.436Z,94395.09
2023-11-23T18:15:11.647Z,94398.75
2023-11-23T18:17:39.101Z,94401.66
2023-11-23T18:20:06.510Z,94398.03
2023-11-23T18:22:33.369Z,94401.16
2023-11-23T18:25:01.438Z,94391.84
2023-11-23T18:27:28.236Z,94387.22
2023-11-23T18:29:55.012Z,94369.22
2023-11-23T18:32:21.722Z,94361.38
2023-11-23T18:34:48.668Z,94357.56
2023-11-23T18:37:16.674Z,94350.44
2023-11-23T18:39:43.631Z,94347.56
2023-11-23T18:42:12.748Z,94346.66
2023-11-23T18:44:41.671Z,94354.66
2023-11-23T18:47:08.622Z,94334.72
2023-11-23T18:49:35.362Z,94346.44
2023-11-23T18:52:03.967Z,94344.84
2023-11-23T18:54:31.228Z,94345.88
2023-11-23T18:56:58.264Z,94338.31
2023-11-23T18:59:25.503Z,94343.34
2023-11-23T19:01:55.261Z,94346.94
2023-11-23T19:04:23.387Z,94346.34
2023-11-23T19:06:53.295Z,94338.22
2023-11-23T19:09:22.921Z,94333.47
2023-11-23T19:11:50.614Z,94333.81
2023-11-23T19:14:17.501Z,94345.53
2023-11-23T19:16:44.400Z,94342.94
2023-11-23T19:19:12.966Z,94322.97
2023-11-23T19:21:40.440Z,94319.47
2023-11-23T19:24:09.021Z,94317.22
2023-11-23T19:26:36.911Z,94324.34
2023-11-23T19:29:04.294Z,94310.31
2023-11-23T19:31:33.969Z,94309.75
2023-11-23T19:34:01.761Z,94292.31
2023-11-23T19:36:29.036Z,94278.81
2023-11-23T19:38:56.204Z,94275.75
2023-11-23T19:41:25.283Z,94275.06
2023-11-23T19:43:52.196Z,94268.63
2023-11-23T19:46:19.223Z,94271.34
2023-11-23T19:48:46.373Z,94260.88
2023-11-23T19:51:19.981Z,94263.63
2023-11-23T19:53:51.141Z,94264.50
2023-11-23T19:56:18.005Z,94261.91
2023-11-23T19:58:44.728Z,94252.25
2023-11-23T20:01:11.633Z,94239.41
2023-11-23T20:03:38.523Z,94244.94
2023-11-23T20:06:05.408Z,94248.78
2023-11-23T20:08:33.101Z,94257.91
2023-11-23T20:10:59.982Z,94256.00
2023-11-23T20:13:26.786Z,94258.59
2023-11-23T20:15:53.688Z,94246.66
2023-11-23T20:18:20.665Z,94231.53
2023-11-23T20:20:47.457Z,94232.44
2023-11-23T20:23:14.303Z,94231.63
2023-11-23T20:25:41.124Z,94229.72
2023-11-23T20:28:11.025Z,94230.41
2023-11-23T20:30:38.095Z,94224.22
2023-11-23T20:33:05.181Z,94225.94
2023-11-23T20:35:32.038Z,94229.91
2023-11-23T20:37:59.106Z,94229.69
2023-11-23T20:40:25.852Z,94236.88
2023-11-23T20:42:52.737Z,94241.88
2023-11-23T20:45:19.752Z,94221.13
2023-11-23T20:47:47.722Z,94216.84
2023-11-23T20:50:15.096Z,94232.56
2023-11-23T20:52:42.955Z,94237.78
2023-11-23T20:55:11.955Z,94234.25
2023-11-23T20:57:40.721Z,94248.31
2023-11-23T21:00:12.482Z,94255.63
2023-11-23T21:02:39.993Z,94245.88
2023-11-23T21:05:07.354Z,94247.09
2023-11-23T21:07:34.568Z,94245.03
2023-11-23T21:10:01.580Z,94249.53
2023-11-23T21:12:30.178Z,94237.53
2023-11-23T21:14:57.008Z,94227.16
2023-11-23T21:17:24.044Z,94214.53
2023-11-23T21:19:50.810Z,94216.09
2023-11-23T21:22:17.780Z,94210.25
2023-11-23T21:24:45.699Z,94202.06
2023-11-23T21:27:12.816Z,94194.31
2023-11-23T21:29:39.845Z,94191.94
2023-11-23T21:32:07.245Z,94194.75
2023-11-23T21:34:34.074Z,94195.31
2023-11-23T21:37:00.880Z,94183.13
2023-11-23T21:39:28.329Z,94189.38
2023-11-23T21:41:55.126Z,94193.38
2023-11-23T21:44:21.917Z,94193.97
2023-11-23T21:46:48.802Z,94192.41
2023-11-23T21:49:15.559Z,94187.25
2023-11-23T21:51:42.417Z,94200.69
2023-11-23T21:54:10.182Z,94203.59
2023-11-23T21:56:36.916Z,94194.84
2023-11-23T21:59:03.632Z,94180.97
2023-11-23T22:01:33.461Z,94180.28
2023-11-23T22:04:00.350Z,94176.09
2023-11-23T22:06:27.242Z,94171.47
2023-11-23T22:08:54.032Z,94163.88
2023-11-23T22:11:20.759Z,94152.94
2023-11-23T22:13:47.450Z,94152.31
2023-11-23T22:16:14.307Z,94149.63
2023-11-23T22:18:41.596Z,94157.22
2023-11-23T22:21:08.883Z,94153.25
2023-11-23T22:23:36.086Z,94151.81
2023-11-23T22:26:03.488Z,94149.25
2023-11-23T22:28:30.484Z,94159.47
2023-11-23T22:30:57.749Z,94157.28
2023-11-23T22:33:25.711Z,94148.75
2023-11-23T22:35:52.656Z,94146.03
2023-11-23T22:38:19.918Z,94138.56
2023-11-23T22:40:47.009Z,94128.94
2023-11-23T22:43:14.045Z,94117.00
2023-11-23T22:45:41.397Z,94109.00
2023-11-23T22:48:08.243Z,94109.94
2023-11-23T22:50:35.075Z,94107.56
2023-11-23T22:53:01.857Z,94089.84
2023-11-23T22:55:29.067Z,94107.72
2023-11-23T22:57:56.083Z,94091.03
2023-11-23T23:00:26.144Z,94076.84
2023-11-23T23:02:53.108Z,94074.19
2023-11-23T23:05:19.952Z,94068.47
2023-11-23T23:07:46.941Z,94054.91
2023-11-23T23:10:15.121Z,94045.09
2023-11-23T23:12:42.061Z,94048.00
2023-11-23T23:15:09.598Z,94052.66
2023-11-23T23:17:36.741Z,94040.34
2023-11-23T23:20:07.258Z,94031.25
2023-11-23T23:22:34.424Z,94025.47
2023-11-23T23:25:01.430Z,94027.81
2023-11-23T23:27:28.244Z,94026.34
2023-11-23T23:29:55.057Z,94023.41
2023-11-23T23:32:24.542Z,94018.75
2023-11-23T23:34:52.278Z,94012.59
2023-11-23T23:37:19.052Z,94003.72
2023-11-23T23:39:45.883Z,94002.53
2023-11-23T23:42:12.628Z,94002.66
2023-11-23T23:44:39.321Z,93993.34
2023-11-23T23:47:08.415Z,93974.44
2023-11-23T23:49:35.775Z,93980.03
2023-11-23T23:52:03.735Z,93985.44
2023-11-23T23:54:30.565Z,93993.66
2023-11-23T23:56:58.862Z,93992.47
2023-11-23T23:59:26.011Z,93977.16
